createdAt,value
2023-04-15T00:01:45.538Z,75.11
2023-04-15T00:11:52.484Z,75.56
2023-04-15T00:21:58.977Z,75.60
2023-04-15T00:32:05.237Z,75.84
2023-04-15T00:42:11.831Z,75.59
2023-04-15T00:52:18.595Z,75.47
2023-04-15T01:02:25.294Z,75.52
2023-04-15T01:12:32.006Z,75.38
2023-04-15T01:22:38.804Z,75.52
2023-04-15T01:32:45.678Z,75.21
2023-04-15T01:42:52.303Z,74.89
2023-04-15T01:52:58.596Z,75.73
2023-04-15T02:03:05.504Z,76.15
2023-04-15T02:13:12.253Z,76.11
2023-04-15T02:23:18.764Z,76.52
2023-04-15T02:33:25.370Z,76.52
2023-04-15T02:43:31.957Z,76.53
2023-04-15T02:53:38.145Z,76.68
2023-04-15T03:03:45.116Z,76.79
2023-04-15T03:13:51.880Z,77.23
2023-04-15T03:23:58.216Z,77.31
2023-04-15T03:34:04.387Z,77.28
2023-04-15T03:44:10.763Z,77.25
2023-04-15T03:54:17.650Z,76.91
2023-04-15T04:04:24.529Z,77.29
2023-04-15T04:14:31.452Z,77.09
2023-04-15T04:24:37.506Z,77.65
2023-04-15T04:34:44.076Z,77.81
2023-04-15T04:44:50.463Z,77.72
2023-04-15T04:54:56.736Z,78.17
2023-04-15T05:05:03.750Z,77.81
2023-04-15T05:15:10.061Z,78.03
2023-04-15T05:25:16.660Z,77.79
2023-04-15T05:35:22.870Z,78.27
2023-04-15T05:45:29.551Z,78.71
2023-04-15T05:55:36.341Z,78.59
2023-04-15T06:05:42.748Z,79.05
2023-04-15T06:15:49.401Z,78.95
2023-04-15T06:25:56.010Z,79.25
2023-04-15T06:36:02.298Z,78.87
2023-04-15T06:46:08.852Z,78.82
2023-04-15T06:56:15.742Z,78.69
2023-04-15T07:06:22.165Z,72.46
2023-04-15T07:16:29.880Z,72.33
2023-04-15T07:26:34.829Z,79.83
2023-04-15T07:36:40.861Z,82.60
2023-04-15T07:46:47.277Z,84.08
2023-04-15T07:56:54.255Z,76.94
2023-04-15T08:07:01.884Z,74.23
2023-04-15T08:17:08.787Z,73.19
2023-04-15T08:27:15.734Z,71.68
2023-04-15T08:37:22.598Z,71.21
2023-04-15T08:47:29.763Z,71.01
2023-04-15T08:57:36.656Z,70.90
2023-04-15T09:07:43.158Z,70.80
2023-04-15T09:17:49.898Z,70.95
2023-04-15T09:27:56.519Z,71.07
2023-04-15T09:38:03.088Z,71.10
2023-04-15T09:48:09.599Z,71.13
2023-04-15T09:58:15.845Z,70.99
2023-04-15T10:08:22.551Z,70.89
2023-04-15T10:18:28.800Z,71.12
2023-04-15T10:28:35.100Z,70.86
2023-04-15T10:38:41.587Z,70.57
2023-04-15T10:48:47.861Z,70.72
2023-04-15T10:58:54.253Z,70.72
2023-04-15T11:09:00.227Z,70.78
2023-04-15T11:19:07.195Z,70.76
2023-04-15T11:29:13.411Z,70.38
2023-04-15T11:39:19.647Z,70.46
2023-04-15T11:49:25.495Z,70.52
2023-04-15T11:59:44.546Z,70.74
2023-04-15T12:09:43.117Z,71.04
2023-04-15T12:19:49.228Z,71.09
2023-04-15T12:29:55.263Z,71.19
2023-04-15T12:40:01.500Z,71.32
2023-04-15T12:50:07.265Z,71.33
2023-04-15T13:00:13.058Z,71.38
2023-04-15T13:10:18.920Z,71.24
2023-04-15T13:20:24.866Z,71.29
2023-04-15T13:30:31.374Z,70.97
2023-04-15T13:40:37.352Z,70.83
2023-04-15T13:50:43.720Z,70.64
2023-04-15T14:00:49.989Z,70.41
2023-04-15T14:10:56.316Z,70.47
2023-04-15T14:21:02.792Z,70.65
2023-04-15T14:31:08.988Z,70.83
2023-04-15T14:41:15.425Z,71.50
2023-04-15T14:51:21.069Z,71.75
2023-04-15T15:01:27.017Z,72.01
2023-04-15T15:11:33.297Z,72.20
2023-04-15T15:21:39.662Z,72.69
2023-04-15T15:31:45.692Z,73.04
2023-04-15T15:41:52.162Z,72.53
2023-04-15T15:51:58.844Z,72.56
2023-04-15T16:02:05.247Z,72.41
2023-04-15T16:12:11.288Z,72.58
2023-04-15T16:22:17.311Z,72.58
2023-04-15T16:32:23.064Z,72.51
2023-04-15T16:42:29.028Z,72.30
2023-04-15T16:52:35.002Z,72.28
2023-04-15T17:02:41.116Z,72.25
2023-04-15T17:12:47.415Z,72.07
2023-04-15T17:22:53.322Z,71.96
2023-04-15T17:33:01.601Z,71.78
2023-04-15T17:43:07.894Z,71.76
2023-04-15T17:53:13.769Z,71.78
2023-04-15T18:03:20.024Z,71.71
2023-04-15T18:13:25.842Z,71.57
2023-04-15T18:23:31.756Z,71.51
2023-04-15T18:33:37.584Z,71.35
2023-04-15T18:43:43.857Z,71.32
2023-04-15T18:53:49.910Z,71.35
2023-04-15T19:03:56.435Z,71.34
2023-04-15T19:14:02.557Z,71.32
2023-04-15T19:24:08.391Z,71.51
2023-04-15T19:34:14.864Z,71.54
2023-04-15T19:44:21.088Z,71.67
2023-04-15T19:54:27.161Z,71.57
2023-04-15T20:04:33.353Z,70.68
2023-04-15T20:14:39.394Z,70.25
2023-04-15T20:24:45.612Z,70.09
2023-04-15T20:34:51.274Z,69.86
2023-04-15T20:44:57.370Z,69.94
2023-04-15T20:55:03.302Z,70.49
2023-04-15T21:05:09.048Z,70.80
2023-04-15T21:15:15.016Z,70.91
2023-04-15T21:25:20.753Z,71.11
2023-04-15T21:35:26.960Z,71.25
2023-04-15T21:45:33.057Z,71.00
2023-04-15T21:55:39.332Z,70.94
2023-04-15T22:05:45.486Z,70.91
2023-04-15T22:15:51.554Z,71.09
2023-04-15T22:25:57.930Z,70.18
2023-04-15T22:36:04.035Z,69.87
2023-04-15T22:46:09.948Z,69.92
2023-04-15T22:56:15.899Z,70.11
2023-04-15T23:06:22.296Z,70.33
2023-04-15T23:16:28.838Z,70.59
2023-04-15T23:26:35.027Z,70.72
2023-04-15T23:36:41.170Z,71.12
2023-04-15T23:46:46.861Z,71.11
2023-04-15T23:56:52.695Z,71.38
